createdAt,value
2018-10-19T00:01:33.158Z,35.20
2018-10-19T00:04:02.008Z,35.80
2018-10-19T00:06:31.501Z,35.90
2018-10-19T00:09:00.347Z,36.00
2018-10-19T00:11:29.153Z,35.90
2018-10-19T00:13:59.534Z,36.00
2018-10-19T00:16:28.329Z,36.20
2018-10-19T00:18:57.183Z,36.70
2018-10-19T00:21:26.403Z,36.80
2018-10-19T00:23:55.219Z,37.10
2018-10-19T00:26:25.326Z,37.10
2018-10-19T00:28:56.589Z,37.00
2018-10-19T00:31:27.091Z,37.10
2018-10-19T00:33:55.882Z,36.60
2018-10-19T00:36:25.179Z,37.10
2018-10-19T00:38:54.055Z,36.30
2018-10-19T00:41:23.539Z,36.90
2018-10-19T00:43:54.568Z,36.70
2018-10-19T00:48:51.788Z,37.00
2018-10-19T00:51:21.802Z,37.50
2018-10-19T00:53:50.790Z,38.10
2018-10-19T00:56:20.119Z,38.20
2018-10-19T00:58:50.091Z,37.90
2018-10-19T01:01:19.367Z,38.50
2018-10-19T01:03:48.579Z,38.60
2018-10-19T01:06:20.106Z,38.70
2018-10-19T01:08:49.377Z,38.70
2018-10-19T01:11:18.289Z,38.60
2018-10-19T01:13:47.910Z,38.50
2018-10-19T01:16:16.736Z,38.60
2018-10-19T01:18:45.535Z,38.60
2018-10-19T01:21:14.694Z,38.30
2018-10-19T01:23:43.470Z,38.80
2018-10-19T01:26:12.298Z,38.40
2018-10-19T01:28:42.905Z,39.00
2018-10-19T01:31:11.683Z,38.80
2018-10-19T01:33:40.687Z,39.10
2018-10-19T01:36:10.494Z,39.00
2018-10-19T01:38:39.544Z,38.60
2018-10-19T01:41:08.687Z,38.40
2018-10-19T01:46:07.052Z,38.10
2018-10-19T01:48:36.080Z,38.60
2018-10-19T01:51:05.580Z,38.40
2018-10-19T01:53:35.117Z,38.00
2018-10-19T01:56:04.350Z,38.50
2018-10-19T01:58:34.131Z,38.40
2018-10-19T02:01:03.149Z,37.80
2018-10-19T02:03:32.313Z,38.30
2018-10-19T02:06:02.570Z,38.10
2018-10-19T02:08:31.561Z,38.70
2018-10-19T02:11:00.807Z,38.40
2018-10-19T02:13:30.004Z,38.40
2018-10-19T02:15:59.205Z,38.70
2018-10-19T02:18:28.432Z,38.60
2018-10-19T02:20:57.464Z,38.70
2018-10-19T02:23:26.357Z,39.70
2018-10-19T02:25:55.197Z,39.10
2018-10-19T02:28:25.902Z,38.80
2018-10-19T02:30:55.515Z,39.20
2018-10-19T02:33:24.340Z,39.20
2018-10-19T02:35:54.553Z,39.80
2018-10-19T02:38:23.396Z,40.20
2018-10-19T02:40:52.261Z,40.40
2018-10-19T02:43:21.126Z,40.20
2018-10-19T02:45:50.021Z,40.30
2018-10-19T02:48:20.205Z,40.90
2018-10-19T02:50:49.058Z,41.00
2018-10-19T02:53:17.901Z,40.80
2018-10-19T02:55:46.750Z,41.40
2018-10-19T02:58:16.390Z,40.90
2018-10-19T03:00:45.209Z,41.50
2018-10-19T03:03:14.102Z,40.90
2018-10-19T03:05:43.283Z,41.50
2018-10-19T03:08:12.444Z,41.50
2018-10-19T03:10:41.294Z,41.30
2018-10-19T03:13:10.309Z,41.30
2018-10-19T03:15:39.117Z,41.50
2018-10-19T03:18:07.952Z,42.00
2018-10-19T03:20:38.347Z,42.00
2018-10-19T03:23:07.341Z,42.30
2018-10-19T03:25:36.817Z,41.60
2018-10-19T03:28:07.440Z,41.50
2018-10-19T03:30:36.378Z,42.10
2018-10-19T03:33:06.147Z,42.10
2018-10-19T03:35:38.627Z,41.90
2018-10-19T03:38:07.421Z,41.90
2018-10-19T03:40:36.242Z,42.10
2018-10-19T03:43:06.168Z,42.60
2018-10-19T03:45:36.252Z,42.10
2018-10-19T03:48:05.265Z,42.50
2018-10-19T03:50:34.106Z,42.60
2018-10-19T03:53:02.934Z,42.10
2018-10-19T03:55:31.835Z,42.20
2018-10-19T03:58:00.697Z,42.60
2018-10-19T04:00:29.513Z,42.70
2018-10-19T04:02:58.378Z,42.40
2018-10-19T04:05:28.542Z,41.90
2018-10-19T04:07:57.346Z,42.40
2018-10-19T04:10:27.350Z,41.80
2018-10-19T04:12:57.898Z,42.30
2018-10-19T04:15:26.753Z,42.00
2018-10-19T04:17:55.601Z,41.90
2018-10-19T04:20:24.467Z,42.60
2018-10-19T04:23:11.828Z,42.50
2018-10-19T04:25:40.659Z,42.00
2018-10-19T04:28:10.159Z,42.20
2018-10-19T04:30:38.980Z,42.40
2018-10-19T04:33:07.991Z,42.00
2018-10-19T04:35:36.742Z,42.60
2018-10-19T04:38:05.580Z,42.30
2018-10-19T04:40:34.722Z,42.40
2018-10-19T04:45:32.174Z,42.20
2018-10-19T04:48:01.042Z,42.80
2018-10-19T04:50:29.849Z,42.90
2018-10-19T04:52:59.645Z,43.40
2018-10-19T04:55:28.736Z,43.80
2018-10-19T04:57:57.578Z,44.20
2018-10-19T05:00:26.379Z,43.80
2018-10-19T05:02:55.683Z,44.30
2018-10-19T05:05:24.632Z,44.10
2018-10-19T05:07:53.382Z,46.00
2018-10-19T05:10:22.235Z,44.10
2018-10-19T05:12:51.268Z,44.60
2018-10-19T05:15:20.083Z,42.50
2018-10-19T05:17:49.735Z,43.10
2018-10-19T05:20:18.618Z,41.90
2018-10-19T05:22:47.738Z,42.50
2018-10-19T05:25:16.854Z,41.70
2018-10-19T05:27:46.352Z,41.50
2018-10-19T05:30:15.195Z,42.20
2018-10-19T05:32:45.147Z,40.90
2018-10-19T05:35:15.005Z,40.50
2018-10-19T05:37:43.844Z,41.10
2018-10-19T05:40:13.586Z,41.00
2018-10-19T05:42:43.598Z,40.90
2018-10-19T05:45:14.172Z,40.60
2018-10-19T05:47:43.614Z,40.50
2018-10-19T05:50:13.065Z,43.20
2018-10-19T05:52:42.118Z,39.40
2018-10-19T05:55:11.227Z,39.50
2018-10-19T05:57:40.056Z,40.00
2018-10-19T06:00:12.799Z,38.70
2018-10-19T06:02:41.781Z,39.30
2018-10-19T06:05:13.592Z,38.90
2018-10-19T06:07:43.958Z,36.80
2018-10-19T06:10:13.295Z,35.20
2018-10-19T06:12:42.120Z,35.50
2018-10-19T06:15:11.870Z,33.80
2018-10-19T06:17:44.676Z,30.60
2018-10-19T06:20:15.389Z,31.40
2018-10-19T06:22:44.197Z,29.90
2018-10-19T06:25:13.004Z,29.00
2018-10-19T06:27:45.382Z,28.10
2018-10-19T06:30:14.217Z,27.00
2018-10-19T06:32:43.019Z,26.20
2018-10-19T06:35:12.178Z,25.50
2018-10-19T06:37:41.040Z,24.70
2018-10-19T06:40:11.590Z,23.80
2018-10-19T06:42:40.846Z,23.30
2018-10-19T06:45:09.747Z,22.60
2018-10-19T06:47:38.571Z,21.90
2018-10-19T06:50:10.175Z,21.20
2018-10-19T06:52:39.400Z,20.60
2018-10-19T06:55:09.358Z,19.90
2018-10-19T06:57:38.493Z,19.60
2018-10-19T07:00:07.392Z,19.10
2018-10-19T07:02:36.999Z,18.50
2018-10-19T07:05:06.525Z,17.80
2018-10-19T07:07:36.104Z,17.10
2018-10-19T07:10:05.434Z,16.50
2018-10-19T07:12:34.274Z,16.00
2018-10-19T07:15:03.078Z,15.30
2018-10-19T07:17:31.951Z,14.80
2018-10-19T07:20:04.578Z,13.70
2018-10-19T07:22:33.894Z,14.00
2018-10-19T07:25:02.812Z,13.40
2018-10-19T07:27:33.611Z,13.10
2018-10-19T07:30:03.328Z,12.50
2018-10-19T07:32:33.543Z,12.10
2018-10-19T07:35:03.931Z,12.00
2018-10-19T07:37:33.520Z,12.20
2018-10-19T07:40:03.816Z,11.30
2018-10-19T07:42:33.497Z,11.00
2018-10-19T07:45:03.087Z,10.80
2018-10-19T07:47:31.969Z,10.30
2018-10-19T07:52:33.289Z,9.60
2018-10-19T07:55:02.669Z,9.40
2018-10-19T07:57:32.308Z,9.30
2018-10-19T08:00:02.345Z,8.80
2018-10-19T08:02:31.202Z,8.70
2018-10-19T08:05:06.671Z,8.60
2018-10-19T08:07:36.184Z,8.20
2018-10-19T08:10:06.416Z,8.00
2018-10-19T08:12:35.577Z,7.10
2018-10-19T08:15:05.211Z,7.60
2018-10-19T08:17:34.860Z,7.20
2018-10-19T08:20:07.635Z,7.20
2018-10-19T08:22:40.411Z,7.10
2018-10-19T08:25:11.668Z,6.80
2018-10-19T08:27:41.079Z,6.60
2018-10-19T08:30:11.809Z,6.30
2018-10-19T08:32:41.381Z,6.20
2018-10-19T08:35:10.773Z,6.10
2018-10-19T08:37:40.764Z,5.80
2018-10-19T08:40:10.794Z,5.60
2018-10-19T08:42:40.026Z,5.40
2018-10-19T08:45:08.983Z,5.20
2018-10-19T08:47:37.879Z,5.60
2018-10-19T08:50:08.317Z,5.50
2018-10-19T08:52:37.655Z,5.30
2018-10-19T08:55:07.990Z,5.40
2018-10-19T08:57:37.696Z,5.40
2018-10-19T09:00:09.532Z,5.00
2018-10-19T09:02:38.279Z,5.30
2018-10-19T09:05:07.121Z,5.20
2018-10-19T09:07:36.958Z,5.10
2018-10-19T09:10:06.494Z,5.20
2018-10-19T09:12:36.254Z,5.10
2018-10-19T09:15:07.660Z,5.00
2018-10-19T09:17:37.233Z,4.90
2018-10-19T09:20:08.576Z,5.00
2018-10-19T09:22:38.468Z,5.10
2018-10-19T09:25:07.362Z,4.90
2018-10-19T09:27:39.544Z,4.90
2018-10-19T09:30:09.922Z,5.30
2018-10-19T09:32:38.725Z,5.50
2018-10-19T09:35:08.836Z,5.50
2018-10-19T09:37:39.236Z,5.90
2018-10-19T09:40:09.031Z,5.60
2018-10-19T09:42:37.879Z,6.10
2018-10-19T09:45:07.568Z,5.80
2018-10-19T09:47:37.256Z,6.30
2018-10-19T09:50:06.651Z,6.20
2018-10-19T09:52:36.933Z,6.10
2018-10-19T09:55:07.516Z,6.20
2018-10-19T09:57:37.276Z,6.20
2018-10-19T10:00:17.265Z,6.30
2018-10-19T10:02:46.728Z,5.40
2018-10-19T10:05:15.721Z,5.70
2018-10-19T10:07:44.538Z,5.50
2018-10-19T10:10:13.362Z,5.30
2018-10-19T10:12:43.175Z,5.30
2018-10-19T10:15:12.450Z,5.10
2018-10-19T10:17:41.157Z,4.70
2018-10-19T10:20:10.690Z,4.60
2018-10-19T10:22:41.412Z,4.50
2018-10-19T10:25:10.687Z,4.60
2018-10-19T10:27:40.475Z,4.60
2018-10-19T10:30:11.705Z,4.00
2018-10-19T10:32:40.815Z,4.40
2018-10-19T10:35:10.149Z,4.00
2018-10-19T10:37:41.612Z,4.40
2018-10-19T10:40:10.561Z,3.80
2018-10-19T10:42:40.519Z,3.90
2018-10-19T10:45:12.082Z,3.50
2018-10-19T10:47:41.066Z,3.70
2018-10-19T10:50:09.917Z,3.30
2018-10-19T10:52:39.048Z,3.50
2018-10-19T10:55:08.243Z,3.50
2018-10-19T10:57:39.590Z,4.10
2018-10-19T11:00:09.186Z,4.00
2018-10-19T11:02:39.220Z,4.30
2018-10-19T11:05:09.922Z,4.70
2018-10-19T11:07:40.143Z,5.20
2018-10-19T11:10:09.250Z,6.00
2018-10-19T11:12:38.056Z,6.40
2018-10-19T11:15:10.084Z,7.10
2018-10-19T11:20:13.610Z,8.00
2018-10-19T11:22:43.551Z,8.50
2018-10-19T11:25:12.403Z,8.40
2018-10-19T11:27:42.909Z,8.50
2018-10-19T11:30:13.646Z,8.60
2018-10-19T11:32:43.027Z,9.50
2018-10-19T11:35:12.259Z,9.50
2018-10-19T11:37:41.350Z,10.30
2018-10-19T11:40:33.941Z,10.30
2018-10-19T11:43:05.289Z,10.20
2018-10-19T11:45:34.752Z,9.70
2018-10-19T11:48:04.245Z,10.50
2018-10-19T11:50:34.895Z,9.80
2018-10-19T11:53:03.681Z,9.60
2018-10-19T11:58:03.818Z,10.40
2018-10-19T12:00:32.585Z,10.90
2018-10-19T12:03:01.393Z,11.00
2018-10-19T12:05:30.665Z,11.40
2018-10-19T12:07:59.467Z,11.40
2018-10-19T12:10:28.977Z,11.30
2018-10-19T12:12:57.924Z,9.70
2018-10-19T12:15:28.857Z,10.10
2018-10-19T12:17:59.884Z,9.50
2018-10-19T12:20:28.786Z,10.00
2018-10-19T12:22:57.579Z,10.30
2018-10-19T12:25:27.652Z,10.00
2018-10-19T12:27:56.456Z,11.10
2018-10-19T12:30:26.276Z,11.60
2018-10-19T12:32:55.786Z,11.70
2018-10-19T12:35:24.640Z,12.10
2018-10-19T12:37:53.389Z,12.10
2018-10-19T12:40:24.327Z,12.20
2018-10-19T12:42:53.147Z,12.70
2018-10-19T12:46:36.974Z,13.00
2018-10-19T12:51:41.418Z,13.20
2018-10-19T12:54:11.111Z,14.00
2018-10-19T12:56:40.498Z,13.10
2018-10-19T12:59:09.681Z,12.50
2018-10-19T13:04:07.070Z,12.40
2018-10-19T13:06:38.517Z,12.90
2018-10-19T13:09:11.898Z,13.30
2018-10-19T13:11:41.045Z,13.60
2018-10-19T13:14:12.225Z,13.80
2018-10-19T13:16:41.675Z,13.40
2018-10-19T13:21:40.220Z,12.90
2018-10-19T13:24:09.089Z,13.30
2018-10-19T13:26:38.017Z,13.70
2018-10-19T13:29:08.811Z,13.70
2018-10-19T13:31:38.623Z,13.40
2018-10-19T13:34:08.412Z,13.90
2018-10-19T13:36:37.240Z,13.70
2018-10-19T13:39:08.757Z,12.90
2018-10-19T13:41:39.115Z,14.00
2018-10-19T13:44:07.907Z,13.60
2018-10-19T13:46:37.592Z,13.80
2018-10-19T13:49:08.603Z,14.10
2018-10-19T13:51:37.413Z,14.70
2018-10-19T13:56:34.741Z,15.10
2018-10-19T14:01:32.004Z,15.30
2018-10-19T14:04:02.702Z,17.10
2018-10-19T14:06:32.566Z,18.30
2018-10-19T14:09:01.452Z,18.90
2018-10-19T14:11:31.563Z,19.40
2018-10-19T14:14:00.388Z,19.80
2018-10-19T14:16:29.795Z,20.10
2018-10-19T14:18:58.644Z,19.70
2018-10-19T14:21:27.569Z,19.70
2018-10-19T14:23:56.424Z,19.80
2018-10-19T14:26:25.724Z,19.90
2018-10-19T14:28:54.572Z,20.40
2018-10-19T14:31:23.550Z,20.60
2018-10-19T14:36:22.104Z,21.00
2018-10-19T14:38:51.314Z,21.10
2018-10-19T14:41:21.014Z,21.50
2018-10-19T14:43:51.558Z,20.90
2018-10-19T14:46:20.379Z,21.40
2018-10-19T14:48:50.887Z,21.30
2018-10-19T14:51:19.728Z,21.80
2018-10-19T14:53:48.555Z,22.00
2018-10-19T14:56:17.494Z,22.40
2018-10-19T14:58:47.615Z,21.80
2018-10-19T15:01:16.506Z,22.30
2018-10-19T15:03:46.895Z,22.60
2018-10-19T15:06:15.693Z,22.90
2018-10-19T15:08:45.217Z,22.90
2018-10-19T15:11:14.426Z,23.10
2018-10-19T15:13:43.622Z,23.60
2018-10-19T15:16:12.437Z,23.90
2018-10-19T15:18:41.865Z,24.40
2018-10-19T15:21:10.685Z,23.40
2018-10-19T15:23:39.462Z,23.70
2018-10-19T15:26:08.699Z,23.80
2018-10-19T15:28:37.496Z,24.30
2018-10-19T15:31:06.459Z,24.30
2018-10-19T15:33:35.395Z,23.80
2018-10-19T15:36:04.949Z,24.20
2018-10-19T15:41:02.272Z,24.20
2018-10-19T15:43:31.155Z,24.40
2018-10-19T15:45:59.963Z,24.70
2018-10-19T15:48:29.704Z,25.10
2018-10-19T15:50:58.550Z,25.30
2018-10-19T15:55:55.780Z,25.30
2018-10-19T15:58:24.660Z,25.50
2018-10-19T16:00:53.446Z,26.00
2018-10-19T16:03:22.565Z,26.30
2018-10-19T16:05:51.409Z,26.40
2018-10-19T16:08:20.240Z,25.90
2018-10-19T16:10:49.359Z,26.10
2018-10-19T16:13:18.158Z,26.30
2018-10-19T16:15:47.065Z,26.60
2018-10-19T16:18:17.937Z,26.70
2018-10-19T16:20:46.767Z,27.20
2018-10-19T16:23:15.592Z,27.30
2018-10-19T16:25:46.243Z,27.70
2018-10-19T16:28:15.934Z,27.20
2018-10-19T16:30:44.721Z,27.10
2018-10-19T16:33:14.791Z,27.50
2018-10-19T16:35:44.075Z,27.50
2018-10-19T16:38:12.997Z,27.10
2018-10-19T16:40:42.935Z,27.60
2018-10-19T16:43:11.810Z,27.90
2018-10-19T16:45:40.704Z,28.00
2018-10-19T16:48:11.185Z,27.80
2018-10-19T16:50:40.121Z,28.10
2018-10-19T16:53:08.944Z,28.30
2018-10-19T16:55:37.749Z,29.30
2018-10-19T16:58:06.627Z,28.70
2018-10-19T17:00:35.475Z,29.20
2018-10-19T17:03:07.020Z,29.40
2018-10-19T17:05:38.058Z,29.40
2018-10-19T17:08:06.860Z,29.70
2018-10-19T17:13:04.387Z,29.30
2018-10-19T17:15:33.190Z,29.80
2018-10-19T17:18:02.117Z,30.00
2018-10-19T17:20:31.856Z,30.10
2018-10-19T17:23:00.696Z,29.80
2018-10-19T17:25:30.342Z,30.00
2018-10-19T17:27:59.144Z,30.50
2018-10-19T17:30:27.983Z,30.00
2018-10-19T17:32:57.746Z,30.40
2018-10-19T17:35:26.511Z,29.80
2018-10-19T17:37:55.333Z,29.80
2018-10-19T17:40:25.040Z,30.30
2018-10-19T17:42:53.976Z,30.40
2018-10-19T17:45:25.427Z,30.00
2018-10-19T17:47:57.075Z,30.60
2018-10-19T17:50:25.900Z,29.90
2018-10-19T17:52:54.890Z,29.80
2018-10-19T17:55:24.348Z,30.20
2018-10-19T17:57:53.145Z,30.30
2018-10-19T18:00:22.005Z,29.80
2018-10-19T18:02:51.115Z,29.90
2018-10-19T18:05:19.951Z,30.10
2018-10-19T18:07:49.495Z,30.20
2018-10-19T18:10:18.824Z,30.80
2018-10-19T18:12:47.675Z,30.80
2018-10-19T18:15:17.206Z,31.00
2018-10-19T18:17:47.715Z,30.40
2018-10-19T18:20:16.621Z,30.60
2018-10-19T18:22:46.396Z,30.50
2018-10-19T18:25:16.662Z,30.40
2018-10-19T18:27:45.524Z,30.40
2018-10-19T18:30:14.468Z,30.70
2018-10-19T18:32:44.263Z,31.10
2018-10-19T18:35:13.123Z,30.90
2018-10-19T18:40:13.240Z,31.00
2018-10-19T18:42:42.030Z,30.90
2018-10-19T18:45:11.168Z,31.00
2018-10-19T18:47:40.271Z,31.70
2018-10-19T18:50:09.566Z,32.50
2018-10-19T18:52:38.861Z,31.60
2018-10-19T18:55:08.700Z,31.90
2018-10-19T18:57:37.549Z,31.70
2018-10-19T19:00:08.715Z,31.20
2018-10-19T19:02:41.121Z,31.80
2018-10-19T19:07:38.417Z,31.30
2018-10-19T19:10:12.110Z,31.90
2018-10-19T19:12:41.016Z,31.70
2018-10-19T19:15:10.320Z,31.70
2018-10-19T19:20:15.435Z,31.60
2018-10-19T19:22:45.559Z,31.70
2018-10-19T19:25:20.000Z,32.20
2018-10-19T19:27:48.827Z,32.40
2018-10-19T19:30:17.719Z,32.30
2018-10-19T19:32:51.799Z,32.00
2018-10-19T19:35:20.601Z,32.50
2018-10-19T19:37:49.395Z,32.70
2018-10-19T19:40:19.392Z,31.90
2018-10-19T19:42:50.275Z,32.50
2018-10-19T19:45:22.869Z,32.10
2018-10-19T19:47:57.610Z,32.60
2018-10-19T19:50:27.901Z,32.40
2018-10-19T19:52:56.758Z,31.80
2018-10-19T19:55:25.900Z,32.30
2018-10-19T19:57:55.759Z,32.40
2018-10-19T20:00:24.951Z,31.60
2018-10-19T20:02:53.744Z,31.70
2018-10-19T20:05:23.717Z,31.70
2018-10-19T20:07:52.540Z,31.70
2018-10-19T20:10:21.351Z,32.30
2018-10-19T20:12:51.045Z,32.20
2018-10-19T20:15:20.679Z,32.30
2018-10-19T20:17:49.496Z,32.10
2018-10-19T20:20:19.329Z,32.30
2018-10-19T20:22:48.134Z,32.70
2018-10-19T20:25:16.933Z,32.50
2018-10-19T20:27:47.363Z,33.20
2018-10-19T20:30:16.161Z,32.30
2018-10-19T20:32:44.985Z,32.40
2018-10-19T20:35:14.698Z,33.00
2018-10-19T20:37:43.463Z,32.80
2018-10-19T20:40:12.279Z,32.70
2018-10-19T20:42:41.627Z,33.30
2018-10-19T20:45:10.467Z,33.20
2018-10-19T20:47:39.294Z,33.80
2018-10-19T20:50:08.452Z,33.30
2018-10-19T20:52:37.255Z,33.50
2018-10-19T20:55:06.714Z,34.00
2018-10-19T20:57:35.528Z,34.20
2018-10-19T21:00:05.050Z,33.80
2018-10-19T21:02:33.849Z,33.70
2018-10-19T21:05:03.876Z,34.40
2018-10-19T21:07:32.801Z,34.70
2018-10-19T21:10:01.556Z,34.90
2018-10-19T21:12:30.383Z,35.10
2018-10-19T21:14:59.162Z,35.20
2018-10-19T21:17:27.946Z,35.50
2018-10-19T21:19:57.153Z,35.00
2018-10-19T21:22:25.925Z,35.50
2018-10-19T21:24:54.726Z,35.80
2018-10-19T21:27:25.449Z,35.90
2018-10-19T21:29:54.280Z,35.70
2018-10-19T21:32:23.045Z,36.30
2018-10-19T21:34:52.137Z,36.50
2018-10-19T21:37:21.767Z,36.50
2018-10-19T21:39:50.569Z,36.40
2018-10-19T21:42:19.617Z,36.20
2018-10-19T21:44:48.399Z,36.80
2018-10-19T21:47:17.226Z,36.90
2018-10-19T21:49:46.794Z,36.90
2018-10-19T21:52:15.575Z,36.90
2018-10-19T21:54:44.384Z,37.00
2018-10-19T21:57:14.470Z,36.80
2018-10-19T21:59:43.242Z,37.30
2018-10-19T22:02:12.094Z,37.30
2018-10-19T22:04:41.168Z,37.30
2018-10-19T22:07:09.954Z,37.50
2018-10-19T22:09:38.730Z,37.60
2018-10-19T22:12:07.557Z,37.10
2018-10-19T22:14:36.378Z,37.60
2018-10-19T22:17:05.183Z,37.60
2018-10-19T22:19:35.326Z,37.90
2018-10-19T22:22:04.122Z,38.00
2018-10-19T22:24:32.893Z,38.20
2018-10-19T22:27:02.028Z,38.20
2018-10-19T22:29:30.850Z,37.70
2018-10-19T22:31:59.642Z,37.70
2018-10-19T22:34:30.388Z,38.30
2018-10-19T22:36:59.999Z,38.70
2018-10-19T22:39:28.840Z,38.40
2018-10-19T22:41:59.565Z,38.90
2018-10-19T22:44:28.349Z,39.00
2018-10-19T22:46:57.362Z,39.20
2018-10-19T22:49:26.932Z,39.10
2018-10-19T22:51:55.701Z,39.20
2018-10-19T22:54:24.465Z,39.40
2018-10-19T22:56:54.079Z,39.60
2018-10-19T22:59:22.911Z,39.70
2018-10-19T23:01:51.695Z,39.80
2018-10-19T23:04:20.761Z,39.90
2018-10-19T23:06:49.605Z,39.80
2018-10-19T23:09:18.405Z,40.00
2018-10-19T23:11:47.493Z,40.10
2018-10-19T23:14:16.313Z,40.20
2018-10-19T23:16:45.107Z,40.30
2018-10-19T23:19:14.315Z,40.30
2018-10-19T23:21:43.144Z,40.60
2018-10-19T23:24:11.879Z,40.70
2018-10-19T23:26:41.242Z,40.60
2018-10-19T23:29:10.079Z,40.60
2018-10-19T23:31:39.710Z,40.80
2018-10-19T23:34:09.184Z,41.00
2018-10-19T23:36:37.938Z,41.40
2018-10-19T23:39:09.407Z,41.60
2018-10-19T23:41:39.462Z,41.80
2018-10-19T23:44:09.026Z,41.90
2018-10-19T23:46:39.052Z,42.10
2018-10-19T23:49:08.388Z,41.80
2018-10-19T23:51:38.676Z,42.30
2018-10-19T23:54:08.177Z,41.50
2018-10-19T23:56:37.982Z,41.60
2018-10-19T23:59:06.809Z,41.50
